sensor_id;sensor_type;location;lat;lon;timestamp;temperature;humidity
45096;DHT22;30858;51.108;8.068;2023-04-19T00:02:24;10.00;99.90
45096;DHT22;30858;51.108;8.068;2023-04-19T00:04:49;10.00;99.90
45096;DHT22;30858;51.108;8.068;2023-04-19T00:07:15;10.00;99.90
45096;DHT22;30858;51.108;8.068;2023-04-19T00:09:43;10.00;99.90
45096;DHT22;30858;51.108;8.068;2023-04-19T00:12:08;10.00;99.90
45096;DHT22;30858;51.108;8.068;2023-04-19T00:14:34;10.00;99.90
45096;DHT22;30858;51.108;8.068;2023-04-19T00:16:59;10.00;99.90
45096;DHT22;30858;51.108;8.068;2023-04-19T00:19:25;10.00;99.90
45096;DHT22;30858;51.108;8.068;2023-04-19T00:21:51;10.00;99.90
45096;DHT22;30858;51.108;8.068;2023-04-19T00:24:16;10.00;99.90
45096;DHT22;30858;51.108;8.068;2023-04-19T00:26:42;10.00;99.90
45096;DHT22;30858;51.108;8.068;2023-04-19T00:29:08;10.00;99.90
45096;DHT22;30858;51.108;8.068;2023-04-19T00:31:34;9.90;99.90
45096;DHT22;30858;51.108;8.068;2023-04-19T00:33:59;10.00;99.90
45096;DHT22;30858;51.108;8.068;2023-04-19T00:36:25;10.00;99.90
45096;DHT22;30858;51.108;8.068;2023-04-19T00:38:51;10.00;99.90
45096;DHT22;30858;51.108;8.068;2023-04-19T00:41:17;10.00;99.90
45096;DHT22;30858;51.108;8.068;2023-04-19T00:43:42;9.90;99.90
45096;DHT22;30858;51.108;8.068;2023-04-19T00:46:08;9.90;99.90
45096;DHT22;30858;51.108;8.068;2023-04-19T00:48:34;9.90;99.90
45096;DHT22;30858;51.108;8.068;2023-04-19T00:51:03;9.90;99.90
45096;DHT22;30858;51.108;8.068;2023-04-19T00:53:29;9.90;99.90
45096;DHT22;30858;51.108;8.068;2023-04-19T00:55:56;9.90;99.90
45096;DHT22;30858;51.108;8.068;2023-04-19T00:58:24;9.80;99.90
45096;DHT22;30858;51.108;8.068;2023-04-19T01:00:50;9.80;99.90
45096;DHT22;30858;51.108;8.068;2023-04-19T01:03:16;9.80;99.90
45096;DHT22;30858;51.108;8.068;2023-04-19T01:05:42;9.80;99.90
45096;DHT22;30858;51.108;8.068;2023-04-19T01:08:07;9.80;99.90
45096;DHT22;30858;51.108;8.068;2023-04-19T01:10:33;9.80;99.90
45096;DHT22;30858;51.108;8.068;2023-04-19T01:12:59;9.80;99.90
45096;DHT22;30858;51.108;8.068;2023-04-19T01:15:25;9.70;99.90
45096;DHT22;30858;51.108;8.068;2023-04-19T01:17:50;9.80;99.90
45096;DHT22;30858;51.108;8.068;2023-04-19T01:20:16;9.80;99.90
45096;DHT22;30858;51.108;8.068;2023-04-19T01:22:42;9.80;99.90
45096;DHT22;30858;51.108;8.068;2023-04-19T01:25:07;9.80;99.90
45096;DHT22;30858;51.108;8.068;2023-04-19T01:27:33;9.80;99.90
45096;DHT22;30858;51.108;8.068;2023-04-19T01:29:59;9.90;99.90
45096;DHT22;30858;51.108;8.068;2023-04-19T01:32:25;9.80;99.90
45096;DHT22;30858;51.108;8.068;2023-04-19T01:34:51;9.80;99.90
45096;DHT22;30858;51.108;8.068;2023-04-19T01:37:17;9.70;99.90
45096;DHT22;30858;51.108;8.068;2023-04-19T01:39:42;9.70;99.90
45096;DHT22;30858;51.108;8.068;2023-04-19T01:42:08;9.70;99.90
45096;DHT22;30858;51.108;8.068;2023-04-19T01:47:06;9.70;99.90
45096;DHT22;30858;51.108;8.068;2023-04-19T01:49:32;9.70;99.90
45096;DHT22;30858;51.108;8.068;2023-04-19T01:51:57;9.70;99.90
45096;DHT22;30858;51.108;8.068;2023-04-19T01:54:23;9.60;99.90
45096;DHT22;30858;51.108;8.068;2023-04-19T01:56:48;9.70;99.90
45096;DHT22;30858;51.108;8.068;2023-04-19T01:59:14;9.60;99.90
45096;DHT22;30858;51.108;8.068;2023-04-19T02:01:39;9.60;99.90
45096;DHT22;30858;51.108;8.068;2023-04-19T02:04:06;9.60;99.90
45096;DHT22;30858;51.108;8.068;2023-04-19T02:06:32;9.60;99.90
45096;DHT22;30858;51.108;8.068;2023-04-19T02:08:57;9.60;99.90
45096;DHT22;30858;51.108;8.068;2023-04-19T02:11:23;9.50;99.90
45096;DHT22;30858;51.108;8.068;2023-04-19T02:13:48;9.50;99.90
45096;DHT22;30858;51.108;8.068;2023-04-19T02:16:14;9.50;99.90
45096;DHT22;30858;51.108;8.068;2023-04-19T02:18:39;9.50;99.90
45096;DHT22;30858;51.108;8.068;2023-04-19T02:21:06;9.50;99.90
45096;DHT22;30858;51.108;8.068;2023-04-19T02:23:32;9.50;99.90
45096;DHT22;30858;51.108;8.068;2023-04-19T02:25:58;9.40;99.90
45096;DHT22;30858;51.108;8.068;2023-04-19T02:28:23;9.40;99.90
45096;DHT22;30858;51.108;8.068;2023-04-19T02:30:49;9.30;99.90
45096;DHT22;30858;51.108;8.068;2023-04-19T02:33:15;9.30;99.90
45096;DHT22;30858;51.108;8.068;2023-04-19T02:35:40;9.40;99.90
45096;DHT22;30858;51.108;8.068;2023-04-19T02:38:06;9.30;99.90
45096;DHT22;30858;51.108;8.068;2023-04-19T02:40:31;9.30;99.90
45096;DHT22;30858;51.108;8.068;2023-04-19T02:42:57;9.30;99.90
45096;DHT22;30858;51.108;8.068;2023-04-19T02:45:22;9.20;99.90
45096;DHT22;30858;51.108;8.068;2023-04-19T02:47:48;9.20;99.90
45096;DHT22;30858;51.108;8.068;2023-04-19T02:50:15;9.10;99.90
45096;DHT22;30858;51.108;8.068;2023-04-19T02:52:41;9.20;99.90
45096;DHT22;30858;51.108;8.068;2023-04-19T02:55:07;9.10;99.90
45096;DHT22;30858;51.108;8.068;2023-04-19T02:57:33;9.10;99.90
45096;DHT22;30858;51.108;8.068;2023-04-19T02:59:58;9.10;99.90
45096;DHT22;30858;51.108;8.068;2023-04-19T03:02:24;9.10;99.90
45096;DHT22;30858;51.108;8.068;2023-04-19T03:04:50;9.10;99.90
45096;DHT22;30858;51.108;8.068;2023-04-19T03:07:17;9.10;99.90
45096;DHT22;30858;51.108;8.068;2023-04-19T03:09:42;9.10;99.90
45096;DHT22;30858;51.108;8.068;2023-04-19T03:12:08;9.10;99.90
45096;DHT22;30858;51.108;8.068;2023-04-19T03:14:34;9.10;99.90
45096;DHT22;30858;51.108;8.068;2023-04-19T03:16:59;9.20;99.90
45096;DHT22;30858;51.108;8.068;2023-04-19T03:19:25;9.20;99.90
45096;DHT22;30858;51.108;8.068;2023-04-19T03:21:50;9.20;99.90
45096;DHT22;30858;51.108;8.068;2023-04-19T03:24:18;9.10;99.90
45096;DHT22;30858;51.108;8.068;2023-04-19T03:26:43;9.10;99.90
45096;DHT22;30858;51.108;8.068;2023-04-19T03:29:09;9.20;99.90
45096;DHT22;30858;51.108;8.068;2023-04-19T03:31:35;9.10;99.90
45096;DHT22;30858;51.108;8.068;2023-04-19T03:34:01;9.20;99.90
45096;DHT22;30858;51.108;8.068;2023-04-19T03:36:26;9.20;99.90
45096;DHT22;30858;51.108;8.068;2023-04-19T03:38:52;9.20;99.90
45096;DHT22;30858;51.108;8.068;2023-04-19T03:41:25;9.20;99.90
45096;DHT22;30858;51.108;8.068;2023-04-19T03:43:50;9.10;99.90
45096;DHT22;30858;51.108;8.068;2023-04-19T03:46:16;9.10;99.90
45096;DHT22;30858;51.108;8.068;2023-04-19T03:48:42;9.00;99.90
45096;DHT22;30858;51.108;8.068;2023-04-19T03:51:07;9.10;99.90
45096;DHT22;30858;51.108;8.068;2023-04-19T03:53:33;9.10;99.90
45096;DHT22;30858;51.108;8.068;2023-04-19T03:55:59;9.10;99.90
45096;DHT22;30858;51.108;8.068;2023-04-19T03:58:25;9.10;99.90
45096;DHT22;30858;51.108;8.068;2023-04-19T04:00:51;9.10;99.90
45096;DHT22;30858;51.108;8.068;2023-04-19T04:03:17;9.10;99.90
45096;DHT22;30858;51.108;8.068;2023-04-19T04:05:43;9.10;99.90
45096;DHT22;30858;51.108;8.068;2023-04-19T04:08:09;9.10;99.90
45096;DHT22;30858;51.108;8.068;2023-04-19T04:10:34;9.10;99.90
45096;DHT22;30858;51.108;8.068;2023-04-19T04:13:00;9.10;99.90
45096;DHT22;30858;51.108;8.068;2023-04-19T04:15:26;9.10;99.90
45096;DHT22;30858;51.108;8.068;2023-04-19T04:17:51;9.10;99.90
45096;DHT22;30858;51.108;8.068;2023-04-19T04:20:17;9.00;99.90
45096;DHT22;30858;51.108;8.068;2023-04-19T04:22:42;9.00;99.90
45096;DHT22;30858;51.108;8.068;2023-04-19T04:25:10;8.90;99.90
45096;DHT22;30858;51.108;8.068;2023-04-19T04:27:36;9.00;99.90
45096;DHT22;30858;51.108;8.068;2023-04-19T04:30:03;8.90;99.90
45096;DHT22;30858;51.108;8.068;2023-04-19T04:32:28;8.90;99.90
45096;DHT22;30858;51.108;8.068;2023-04-19T04:34:54;8.90;99.90
45096;DHT22;30858;51.108;8.068;2023-04-19T04:37:19;8.90;99.90
45096;DHT22;30858;51.108;8.068;2023-04-19T04:39:45;8.90;99.90
45096;DHT22;30858;51.108;8.068;2023-04-19T04:42:10;8.90;99.90
45096;DHT22;30858;51.108;8.068;2023-04-19T04:44:36;8.90;99.90
45096;DHT22;30858;51.108;8.068;2023-04-19T04:47:03;8.90;99.90
45096;DHT22;30858;51.108;8.068;2023-04-19T04:49:29;8.90;99.90
45096;DHT22;30858;51.108;8.068;2023-04-19T04:51:55;8.90;99.90
45096;DHT22;30858;51.108;8.068;2023-04-19T04:54:20;8.90;99.90
45096;DHT22;30858;51.108;8.068;2023-04-19T04:56:46;8.80;99.90
45096;DHT22;30858;51.108;8.068;2023-04-19T04:59:11;8.90;99.90
45096;DHT22;30858;51.108;8.068;2023-04-19T05:01:37;8.90;99.90
45096;DHT22;30858;51.108;8.068;2023-04-19T05:04:03;8.90;99.90
45096;DHT22;30858;51.108;8.068;2023-04-19T05:06:28;8.90;99.90
45096;DHT22;30858;51.108;8.068;2023-04-19T05:08:53;8.90;99.90
45096;DHT22;30858;51.108;8.068;2023-04-19T05:11:19;8.80;99.90
45096;DHT22;30858;51.108;8.068;2023-04-19T05:13:45;8.80;99.90
45096;DHT22;30858;51.108;8.068;2023-04-19T05:16:10;8.80;99.90
45096;DHT22;30858;51.108;8.068;2023-04-19T05:18:36;8.90;99.90
45096;DHT22;30858;51.108;8.068;2023-04-19T05:21:01;8.90;99.90
45096;DHT22;30858;51.108;8.068;2023-04-19T05:23:27;8.90;99.90
45096;DHT22;30858;51.108;8.068;2023-04-19T05:25:52;8.80;99.90
45096;DHT22;30858;51.108;8.068;2023-04-19T05:28:18;8.80;99.90
45096;DHT22;30858;51.108;8.068;2023-04-19T05:30:44;8.80;99.90
45096;DHT22;30858;51.108;8.068;2023-04-19T05:33:09;8.90;99.90
45096;DHT22;30858;51.108;8.068;2023-04-19T05:35:35;8.80;99.90
45096;DHT22;30858;51.108;8.068;2023-04-19T05:38:00;8.80;99.90
45096;DHT22;30858;51.108;8.068;2023-04-19T05:40:27;8.80;99.90
45096;DHT22;30858;51.108;8.068;2023-04-19T05:42:53;8.80;99.90
45096;DHT22;30858;51.108;8.068;2023-04-19T05:45:20;8.80;99.90
45096;DHT22;30858;51.108;8.068;2023-04-19T05:47:46;8.80;99.90
45096;DHT22;30858;51.108;8.068;2023-04-19T05:50:12;8.80;99.90
45096;DHT22;30858;51.108;8.068;2023-04-19T05:52:39;8.90;99.90
45096;DHT22;30858;51.108;8.068;2023-04-19T05:55:05;9.00;99.90
45096;DHT22;30858;51.108;8.068;2023-04-19T05:57:31;9.10;99.90
45096;DHT22;30858;51.108;8.068;2023-04-19T05:59:57;9.20;99.90
45096;DHT22;30858;51.108;8.068;2023-04-19T06:02:22;9.20;99.90
45096;DHT22;30858;51.108;8.068;2023-04-19T06:04:48;9.30;99.90
45096;DHT22;30858;51.108;8.068;2023-04-19T06:07:13;9.20;99.90
45096;DHT22;30858;51.108;8.068;2023-04-19T06:09:39;9.20;99.90
45096;DHT22;30858;51.108;8.068;2023-04-19T06:12:05;9.10;99.90
45096;DHT22;30858;51.108;8.068;2023-04-19T06:14:30;9.10;99.90
45096;DHT22;30858;51.108;8.068;2023-04-19T06:16:56;9.10;99.90
45096;DHT22;30858;51.108;8.068;2023-04-19T06:19:21;9.00;99.90
45096;DHT22;30858;51.108;8.068;2023-04-19T06:21:47;9.00;99.90
45096;DHT22;30858;51.108;8.068;2023-04-19T06:24:13;9.00;99.90
45096;DHT22;30858;51.108;8.068;2023-04-19T06:26:39;9.00;99.90
45096;DHT22;30858;51.108;8.068;2023-04-19T06:29:04;9.00;99.90
45096;DHT22;30858;51.108;8.068;2023-04-19T06:31:31;9.00;99.90
45096;DHT22;30858;51.108;8.068;2023-04-19T06:33:56;9.10;99.90
45096;DHT22;30858;51.108;8.068;2023-04-19T06:36:22;9.10;99.90
45096;DHT22;30858;51.108;8.068;2023-04-19T06:38:47;9.10;99.90
45096;DHT22;30858;51.108;8.068;2023-04-19T06:41:14;9.10;99.90
45096;DHT22;30858;51.108;8.068;2023-04-19T06:43:39;9.10;99.90
45096;DHT22;30858;51.108;8.068;2023-04-19T06:46:07;9.20;99.90
45096;DHT22;30858;51.108;8.068;2023-04-19T06:48:34;9.20;99.90
45096;DHT22;30858;51.108;8.068;2023-04-19T06:51:00;9.10;99.90
45096;DHT22;30858;51.108;8.068;2023-04-19T06:53:25;9.20;99.90
45096;DHT22;30858;51.108;8.068;2023-04-19T06:55:59;9.30;99.90
45096;DHT22;30858;51.108;8.068;2023-04-19T06:58:28;9.70;99.90
45096;DHT22;30858;51.108;8.068;2023-04-19T07:00:54;9.80;99.90
45096;DHT22;30858;51.108;8.068;2023-04-19T07:03:20;9.90;99.90
45096;DHT22;30858;51.108;8.068;2023-04-19T07:05:46;10.10;99.90
45096;DHT22;30858;51.108;8.068;2023-04-19T07:08:12;10.00;99.90
45096;DHT22;30858;51.108;8.068;2023-04-19T07:10:37;10.20;99.90
45096;DHT22;30858;51.108;8.068;2023-04-19T07:13:03;10.20;99.90
45096;DHT22;30858;51.108;8.068;2023-04-19T07:15:29;10.20;99.90
45096;DHT22;30858;51.108;8.068;2023-04-19T07:17:54;10.40;99.90
45096;DHT22;30858;51.108;8.068;2023-04-19T07:20:20;10.40;99.90
45096;DHT22;30858;51.108;8.068;2023-04-19T07:22:46;10.40;99.90
45096;DHT22;30858;51.108;8.068;2023-04-19T07:25:11;10.50;99.90
45096;DHT22;30858;51.108;8.068;2023-04-19T07:27:37;10.60;99.90
45096;DHT22;30858;51.108;8.068;2023-04-19T07:30:02;10.60;99.90
45096;DHT22;30858;51.108;8.068;2023-04-19T07:32:29;10.90;99.90
45096;DHT22;30858;51.108;8.068;2023-04-19T07:34:55;10.80;99.90
45096;DHT22;30858;51.108;8.068;2023-04-19T07:37:21;10.70;99.90
45096;DHT22;30858;51.108;8.068;2023-04-19T07:39:46;10.60;99.90
45096;DHT22;30858;51.108;8.068;2023-04-19T07:42:12;10.60;99.90
45096;DHT22;30858;51.108;8.068;2023-04-19T07:44:37;10.80;99.90
45096;DHT22;30858;51.108;8.068;2023-04-19T07:47:03;11.00;99.90
45096;DHT22;30858;51.108;8.068;2023-04-19T07:49:30;11.20;99.90
45096;DHT22;30858;51.108;8.068;2023-04-19T07:51:59;11.00;99.90
45096;DHT22;30858;51.108;8.068;2023-04-19T07:54:25;11.10;99.90
45096;DHT22;30858;51.108;8.068;2023-04-19T07:56:51;11.10;99.90
45096;DHT22;30858;51.108;8.068;2023-04-19T07:59:16;11.00;99.90
45096;DHT22;30858;51.108;8.068;2023-04-19T08:01:42;10.90;99.90
45096;DHT22;30858;51.108;8.068;2023-04-19T08:04:07;11.00;99.90
45096;DHT22;30858;51.108;8.068;2023-04-19T08:06:34;10.80;99.90
45096;DHT22;30858;51.108;8.068;2023-04-19T08:09:02;10.90;99.90
45096;DHT22;30858;51.108;8.068;2023-04-19T08:11:28;11.00;99.90
45096;DHT22;30858;51.108;8.068;2023-04-19T08:13:53;11.30;99.90
45096;DHT22;30858;51.108;8.068;2023-04-19T08:16:19;11.40;99.90
45096;DHT22;30858;51.108;8.068;2023-04-19T08:18:44;11.60;99.90
45096;DHT22;30858;51.108;8.068;2023-04-19T08:21:10;11.40;99.90
45096;DHT22;30858;51.108;8.068;2023-04-19T08:23:36;11.50;99.90
45096;DHT22;30858;51.108;8.068;2023-04-19T08:26:02;11.70;99.90
45096;DHT22;30858;51.108;8.068;2023-04-19T08:28:28;11.80;99.90
45096;DHT22;30858;51.108;8.068;2023-04-19T08:30:53;12.10;99.90
45096;DHT22;30858;51.108;8.068;2023-04-19T08:33:19;12.50;99.90
45096;DHT22;30858;51.108;8.068;2023-04-19T08:35:44;12.40;99.90
45096;DHT22;30858;51.108;8.068;2023-04-19T08:38:10;12.50;99.90
45096;DHT22;30858;51.108;8.068;2023-04-19T08:40:42;12.60;99.90
45096;DHT22;30858;51.108;8.068;2023-04-19T08:43:09;12.90;99.90
45096;DHT22;30858;51.108;8.068;2023-04-19T08:45:35;13.00;99.90
45096;DHT22;30858;51.108;8.068;2023-04-19T08:48:03;12.90;99.90
45096;DHT22;30858;51.108;8.068;2023-04-19T08:50:29;13.40;99.90
45096;DHT22;30858;51.108;8.068;2023-04-19T08:52:57;13.60;99.90
45096;DHT22;30858;51.108;8.068;2023-04-19T08:55:24;13.40;99.90
45096;DHT22;30858;51.108;8.068;2023-04-19T08:57:49;13.70;99.90
45096;DHT22;30858;51.108;8.068;2023-04-19T09:00:15;13.60;99.90
45096;DHT22;30858;51.108;8.068;2023-04-19T09:02:50;13.70;99.90
45096;DHT22;30858;51.108;8.068;2023-04-19T09:05:17;13.70;99.90
45096;DHT22;30858;51.108;8.068;2023-04-19T09:07:44;13.70;99.90
45096;DHT22;30858;51.108;8.068;2023-04-19T09:10:11;12.80;99.90
45096;DHT22;30858;51.108;8.068;2023-04-19T09:12:38;13.20;99.90
45096;DHT22;30858;51.108;8.068;2023-04-19T09:15:05;13.60;99.90
45096;DHT22;30858;51.108;8.068;2023-04-19T09:17:33;13.90;99.90
45096;DHT22;30858;51.108;8.068;2023-04-19T09:19:58;13.80;99.90
45096;DHT22;30858;51.108;8.068;2023-04-19T09:22:24;13.90;99.90
45096;DHT22;30858;51.108;8.068;2023-04-19T09:24:50;14.00;99.90
45096;DHT22;30858;51.108;8.068;2023-04-19T09:27:25;14.10;99.90
45096;DHT22;30858;51.108;8.068;2023-04-19T09:29:53;14.10;99.90
45096;DHT22;30858;51.108;8.068;2023-04-19T09:32:19;14.30;99.90
45096;DHT22;30858;51.108;8.068;2023-04-19T09:34:58;14.30;99.90
45096;DHT22;30858;51.108;8.068;2023-04-19T09:37:24;14.10;99.90
45096;DHT22;30858;51.108;8.068;2023-04-19T09:39:51;13.60;99.90
45096;DHT22;30858;51.108;8.068;2023-04-19T09:42:16;13.60;99.90
45096;DHT22;30858;51.108;8.068;2023-04-19T09:44:56;13.60;99.90
45096;DHT22;30858;51.108;8.068;2023-04-19T09:47:24;13.40;99.90
45096;DHT22;30858;51.108;8.068;2023-04-19T09:50:09;13.40;99.90
45096;DHT22;30858;51.108;8.068;2023-04-19T09:52:36;13.40;99.90
45096;DHT22;30858;51.108;8.068;2023-04-19T09:55:03;13.50;99.90
45096;DHT22;30858;51.108;8.068;2023-04-19T09:57:30;13.30;99.90
45096;DHT22;30858;51.108;8.068;2023-04-19T09:59:58;13.10;98.40
45096;DHT22;30858;51.108;8.068;2023-04-19T10:02:25;13.10;95.90
45096;DHT22;30858;51.108;8.068;2023-04-19T10:04:54;13.10;96.50
45096;DHT22;30858;51.108;8.068;2023-04-19T10:07:21;13.20;93.80
45096;DHT22;30858;51.108;8.068;2023-04-19T10:09:49;13.40;92.70
45096;DHT22;30858;51.108;8.068;2023-04-19T10:12:15;13.30;92.50
45096;DHT22;30858;51.108;8.068;2023-04-19T10:14:42;13.20;92.60
45096;DHT22;30858;51.108;8.068;2023-04-19T10:17:08;13.40;94.40
45096;DHT22;30858;51.108;8.068;2023-04-19T10:19:35;13.50;94.70
45096;DHT22;30858;51.108;8.068;2023-04-19T10:22:02;14.20;94.30
45096;DHT22;30858;51.108;8.068;2023-04-19T10:24:32;14.30;91.60
45096;DHT22;30858;51.108;8.068;2023-04-19T10:32:16;14.40;89.00
45096;DHT22;30858;51.108;8.068;2023-04-19T10:34:42;14.30;83.20
45096;DHT22;30858;51.108;8.068;2023-04-19T10:37:12;13.80;82.50
45096;DHT22;30858;51.108;8.068;2023-04-19T10:39:42;13.50;81.70
45096;DHT22;30858;51.108;8.068;2023-04-19T10:42:08;13.50;84.40
45096;DHT22;30858;51.108;8.068;2023-04-19T10:44:34;13.60;81.30
45096;DHT22;30858;51.108;8.068;2023-04-19T10:46:59;13.90;81.20
45096;DHT22;30858;51.108;8.068;2023-04-19T10:49:27;13.90;82.40
45096;DHT22;30858;51.108;8.068;2023-04-19T10:51:53;14.10;79.10
45096;DHT22;30858;51.108;8.068;2023-04-19T10:54:37;14.00;80.10
45096;DHT22;30858;51.108;8.068;2023-04-19T10:57:09;13.90;79.90
45096;DHT22;30858;51.108;8.068;2023-04-19T10:59:39;14.40;79.30
45096;DHT22;30858;51.108;8.068;2023-04-19T11:07:18;13.90;74.20
45096;DHT22;30858;51.108;8.068;2023-04-19T11:09:46;14.00;78.20
45096;DHT22;30858;51.108;8.068;2023-04-19T11:12:14;14.10;77.00
45096;DHT22;30858;51.108;8.068;2023-04-19T11:14:55;14.00;76.60
45096;DHT22;30858;51.108;8.068;2023-04-19T11:17:27;14.60;73.70
45096;DHT22;30858;51.108;8.068;2023-04-19T11:20:08;14.30;75.10
45096;DHT22;30858;51.108;8.068;2023-04-19T11:22:44;14.80;72.90
45096;DHT22;30858;51.108;8.068;2023-04-19T11:25:15;14.90;72.30
45096;DHT22;30858;51.108;8.068;2023-04-19T11:27:48;14.30;70.20
45096;DHT22;30858;51.108;8.068;2023-04-19T11:30:15;13.80;72.30
45096;DHT22;30858;51.108;8.068;2023-04-19T11:32:59;14.70;72.20
45096;DHT22;30858;51.108;8.068;2023-04-19T11:35:27;15.30;69.40
45096;DHT22;30858;51.108;8.068;2023-04-19T11:37:53;15.50;65.90
45096;DHT22;30858;51.108;8.068;2023-04-19T11:40:20;15.40;67.80
45096;DHT22;30858;51.108;8.068;2023-04-19T11:42:53;15.30;63.80
45096;DHT22;30858;51.108;8.068;2023-04-19T11:45:27;14.70;63.90
45096;DHT22;30858;51.108;8.068;2023-04-19T11:47:54;14.90;64.10
45096;DHT22;30858;51.108;8.068;2023-04-19T11:53:31;15.40;65.60
45096;DHT22;30858;51.108;8.068;2023-04-19T11:56:03;15.20;60.00
45096;DHT22;30858;51.108;8.068;2023-04-19T12:01:11;15.20;59.10
45096;DHT22;30858;51.108;8.068;2023-04-19T12:03:43;15.10;59.60
45096;DHT22;30858;51.108;8.068;2023-04-19T12:06:12;15.30;62.20
45096;DHT22;30858;51.108;8.068;2023-04-19T12:08:42;16.20;61.00
45096;DHT22;30858;51.108;8.068;2023-04-19T12:11:08;15.30;60.60
45096;DHT22;30858;51.108;8.068;2023-04-19T12:13:35;15.00;62.00
45096;DHT22;30858;51.108;8.068;2023-04-19T12:16:01;15.90;63.10
45096;DHT22;30858;51.108;8.068;2023-04-19T12:18:27;15.90;62.30
45096;DHT22;30858;51.108;8.068;2023-04-19T12:21:06;15.80;62.90
45096;DHT22;30858;51.108;8.068;2023-04-19T12:23:31;16.40;67.30
45096;DHT22;30858;51.108;8.068;2023-04-19T12:25:57;16.40;63.90
45096;DHT22;30858;51.108;8.068;2023-04-19T12:28:29;16.10;65.20
45096;DHT22;30858;51.108;8.068;2023-04-19T12:30:55;16.10;66.70
45096;DHT22;30858;51.108;8.068;2023-04-19T12:33:20;15.60;65.70
45096;DHT22;30858;51.108;8.068;2023-04-19T12:35:46;15.50;67.80
45096;DHT22;30858;51.108;8.068;2023-04-19T12:38:11;16.00;66.30
45096;DHT22;30858;51.108;8.068;2023-04-19T12:40:37;16.40;66.70
45096;DHT22;30858;51.108;8.068;2023-04-19T12:43:04;16.30;66.30
45096;DHT22;30858;51.108;8.068;2023-04-19T12:45:30;15.80;64.90
45096;DHT22;30858;51.108;8.068;2023-04-19T12:47:55;15.60;66.90
45096;DHT22;30858;51.108;8.068;2023-04-19T12:50:21;16.30;67.70
45096;DHT22;30858;51.108;8.068;2023-04-19T12:52:46;15.40;64.70
45096;DHT22;30858;51.108;8.068;2023-04-19T12:55:12;15.00;67.50
45096;DHT22;30858;51.108;8.068;2023-04-19T12:57:38;15.80;66.40
45096;DHT22;30858;51.108;8.068;2023-04-19T13:00:05;16.30;66.70
45096;DHT22;30858;51.108;8.068;2023-04-19T13:02:33;15.90;69.80
45096;DHT22;30858;51.108;8.068;2023-04-19T13:04:58;16.30;68.70
45096;DHT22;30858;51.108;8.068;2023-04-19T13:07:24;16.70;65.40
45096;DHT22;30858;51.108;8.068;2023-04-19T13:09:50;16.00;64.40
45096;DHT22;30858;51.108;8.068;2023-04-19T13:12:16;16.20;63.80
45096;DHT22;30858;51.108;8.068;2023-04-19T13:14:41;15.80;63.20
45096;DHT22;30858;51.108;8.068;2023-04-19T13:17:07;16.00;64.30
45096;DHT22;30858;51.108;8.068;2023-04-19T13:19:33;15.80;63.80
45096;DHT22;30858;51.108;8.068;2023-04-19T13:21:58;16.30;62.00
45096;DHT22;30858;51.108;8.068;2023-04-19T13:24:24;16.10;61.50
45096;DHT22;30858;51.108;8.068;2023-04-19T13:26:49;16.10;62.60
45096;DHT22;30858;51.108;8.068;2023-04-19T13:29:15;15.90;61.70
45096;DHT22;30858;51.108;8.068;2023-04-19T13:31:40;15.10;62.90
45096;DHT22;30858;51.108;8.068;2023-04-19T13:34:07;14.90;63.50
45096;DHT22;30858;51.108;8.068;2023-04-19T13:36:33;15.60;63.20
45096;DHT22;30858;51.108;8.068;2023-04-19T13:38:58;16.50;61.90
45096;DHT22;30858;51.108;8.068;2023-04-19T13:41:24;15.90;60.80
45096;DHT22;30858;51.108;8.068;2023-04-19T13:43:50;15.60;60.40
45096;DHT22;30858;51.108;8.068;2023-04-19T13:46:15;15.40;62.00
45096;DHT22;30858;51.108;8.068;2023-04-19T13:48:41;15.30;60.70
45096;DHT22;30858;51.108;8.068;2023-04-19T13:51:06;15.20;61.60
45096;DHT22;30858;51.108;8.068;2023-04-19T13:53:32;15.60;64.00
45096;DHT22;30858;51.108;8.068;2023-04-19T13:55:58;15.80;61.00
45096;DHT22;30858;51.108;8.068;2023-04-19T13:58:23;15.60;62.30
45096;DHT22;30858;51.108;8.068;2023-04-19T14:00:49;15.80;63.10
45096;DHT22;30858;51.108;8.068;2023-04-19T14:03:15;16.10;60.90
45096;DHT22;30858;51.108;8.068;2023-04-19T14:05:41;16.50;60.00
45096;DHT22;30858;51.108;8.068;2023-04-19T14:08:07;16.60;60.70
45096;DHT22;30858;51.108;8.068;2023-04-19T14:10:33;16.10;61.90
45096;DHT22;30858;51.108;8.068;2023-04-19T14:12:59;16.10;61.30
45096;DHT22;30858;51.108;8.068;2023-04-19T14:15:24;15.30;65.30
45096;DHT22;30858;51.108;8.068;2023-04-19T14:17:50;14.90;65.30
45096;DHT22;30858;51.108;8.068;2023-04-19T14:20:16;15.70;64.70
45096;DHT22;30858;51.108;8.068;2023-04-19T14:22:43;15.10;64.50
45096;DHT22;30858;51.108;8.068;2023-04-19T14:25:09;16.00;65.40
45096;DHT22;30858;51.108;8.068;2023-04-19T14:27:36;16.40;63.50
45096;DHT22;30858;51.108;8.068;2023-04-19T14:30:03;16.80;62.90
45096;DHT22;30858;51.108;8.068;2023-04-19T14:32:29;15.90;61.10
45096;DHT22;30858;51.108;8.068;2023-04-19T14:34:54;16.00;62.80
45096;DHT22;30858;51.108;8.068;2023-04-19T14:37:21;15.90;61.50
45096;DHT22;30858;51.108;8.068;2023-04-19T14:39:47;16.30;59.90
45096;DHT22;30858;51.108;8.068;2023-04-19T14:42:13;16.70;60.00
45096;DHT22;30858;51.108;8.068;2023-04-19T14:44:39;16.40;58.50
45096;DHT22;30858;51.108;8.068;2023-04-19T14:47:05;16.20;58.50
45096;DHT22;30858;51.108;8.068;2023-04-19T14:49:30;16.40;59.00
45096;DHT22;30858;51.108;8.068;2023-04-19T14:51:56;16.10;58.80
45096;DHT22;30858;51.108;8.068;2023-04-19T14:54:21;15.80;59.00
45096;DHT22;30858;51.108;8.068;2023-04-19T14:56:47;15.30;59.50
45096;DHT22;30858;51.108;8.068;2023-04-19T14:59:12;15.80;60.80
45096;DHT22;30858;51.108;8.068;2023-04-19T15:01:38;15.80;58.70
45096;DHT22;30858;51.108;8.068;2023-04-19T15:04:03;15.00;60.10
45096;DHT22;30858;51.108;8.068;2023-04-19T15:06:29;15.00;58.80
45096;DHT22;30858;51.108;8.068;2023-04-19T15:08:56;15.70;59.80
45096;DHT22;30858;51.108;8.068;2023-04-19T15:11:21;16.50;59.90
45096;DHT22;30858;51.108;8.068;2023-04-19T15:13:47;15.60;58.60
45096;DHT22;30858;51.108;8.068;2023-04-19T15:16:12;15.00;58.70
45096;DHT22;30858;51.108;8.068;2023-04-19T15:18:38;15.20;59.40
45096;DHT22;30858;51.108;8.068;2023-04-19T15:21:04;14.60;59.80
45096;DHT22;30858;51.108;8.068;2023-04-19T15:23:30;14.50;60.40
45096;DHT22;30858;51.108;8.068;2023-04-19T15:25:55;14.60;60.40
45096;DHT22;30858;51.108;8.068;2023-04-19T15:28:23;15.40;61.60
45096;DHT22;30858;51.108;8.068;2023-04-19T15:31:00;16.00;60.00
45096;DHT22;30858;51.108;8.068;2023-04-19T15:33:27;16.60;58.70
45096;DHT22;30858;51.108;8.068;2023-04-19T15:35:53;16.90;60.20
45096;DHT22;30858;51.108;8.068;2023-04-19T15:38:27;17.20;59.90
45096;DHT22;30858;51.108;8.068;2023-04-19T15:40:54;18.00;61.70
45096;DHT22;30858;51.108;8.068;2023-04-19T15:43:20;18.10;56.70
45096;DHT22;30858;51.108;8.068;2023-04-19T15:45:46;16.90;57.50
45096;DHT22;30858;51.108;8.068;2023-04-19T15:48:11;16.10;59.90
45096;DHT22;30858;51.108;8.068;2023-04-19T15:50:38;15.80;61.00
45096;DHT22;30858;51.108;8.068;2023-04-19T15:53:04;17.10;58.90